sensor_id;sensor_type;location;lat;lon;timestamp;temperature;humidity
45207;DHT22;30950;53.086;21.576;2023-04-24T00:01:41;12.30;86.30
45207;DHT22;30950;53.086;21.576;2023-04-24T00:04:10;12.20;87.30
45207;DHT22;30950;53.086;21.576;2023-04-24T00:06:38;12.20;88.10
45207;DHT22;30950;53.086;21.576;2023-04-24T00:09:05;12.20;89.60
45207;DHT22;30950;53.086;21.576;2023-04-24T00:11:33;12.10;90.20
45207;DHT22;30950;53.086;21.576;2023-04-24T00:14:00;12.00;90.60
45207;DHT22;30950;53.086;21.576;2023-04-24T00:16:28;12.00;91.10
45207;DHT22;30950;53.086;21.576;2023-04-24T00:18:55;11.90;91.60
45207;DHT22;30950;53.086;21.576;2023-04-24T00:21:23;11.90;92.10
45207;DHT22;30950;53.086;21.576;2023-04-24T00:23:53;11.80;92.50
45207;DHT22;30950;53.086;21.576;2023-04-24T00:26:20;11.80;93.20
45207;DHT22;30950;53.086;21.576;2023-04-24T00:28:47;11.70;93.60
45207;DHT22;30950;53.086;21.576;2023-04-24T00:31:15;11.60;93.80
45207;DHT22;30950;53.086;21.576;2023-04-24T00:33:42;11.60;94.20
45207;DHT22;30950;53.086;21.576;2023-04-24T00:36:10;11.50;94.60
45207;DHT22;30950;53.086;21.576;2023-04-24T00:38:37;11.50;94.90
45207;DHT22;30950;53.086;21.576;2023-04-24T00:41:04;11.40;95.50
45207;DHT22;30950;53.086;21.576;2023-04-24T00:43:31;11.40;95.60
45207;DHT22;30950;53.086;21.576;2023-04-24T00:45:59;11.40;95.90
45207;DHT22;30950;53.086;21.576;2023-04-24T00:48:28;11.40;96.30
45207;DHT22;30950;53.086;21.576;2023-04-24T00:50:56;11.40;96.50
45207;DHT22;30950;53.086;21.576;2023-04-24T00:53:25;11.70;96.90
45207;DHT22;30950;53.086;21.576;2023-04-24T00:55:53;11.30;96.90
45207;DHT22;30950;53.086;21.576;2023-04-24T00:58:20;11.30;97.40
45207;DHT22;30950;53.086;21.576;2023-04-24T01:00:49;11.30;97.50
45207;DHT22;30950;53.086;21.576;2023-04-24T01:03:21;11.30;97.80
45207;DHT22;30950;53.086;21.576;2023-04-24T01:05:50;11.30;98.10
45207;DHT22;30950;53.086;21.576;2023-04-24T01:08:18;11.40;98.40
45207;DHT22;30950;53.086;21.576;2023-04-24T01:10:47;11.40;98.30
45207;DHT22;30950;53.086;21.576;2023-04-24T01:13:15;11.30;98.40
45207;DHT22;30950;53.086;21.576;2023-04-24T01:15:45;11.30;98.40
45207;DHT22;30950;53.086;21.576;2023-04-24T01:18:12;11.30;98.50
45207;DHT22;30950;53.086;21.576;2023-04-24T01:20:41;11.30;98.60
45207;DHT22;30950;53.086;21.576;2023-04-24T01:23:10;11.30;98.70
45207;DHT22;30950;53.086;21.576;2023-04-24T01:25:39;11.30;98.80
45207;DHT22;30950;53.086;21.576;2023-04-24T01:28:06;11.30;99.00
45207;DHT22;30950;53.086;21.576;2023-04-24T01:30:33;11.30;99.00
45207;DHT22;30950;53.086;21.576;2023-04-24T01:33:01;11.30;99.10
45207;DHT22;30950;53.086;21.576;2023-04-24T01:35:28;11.30;99.20
45207;DHT22;30950;53.086;21.576;2023-04-24T01:37:56;11.30;99.30
45207;DHT22;30950;53.086;21.576;2023-04-24T01:40:24;11.20;99.40
45207;DHT22;30950;53.086;21.576;2023-04-24T01:42:52;11.20;99.50
45207;DHT22;30950;53.086;21.576;2023-04-24T01:45:20;11.20;99.70
45207;DHT22;30950;53.086;21.576;2023-04-24T01:47:47;11.40;99.80
45207;DHT22;30950;53.086;21.576;2023-04-24T01:50:17;11.10;99.80
45207;DHT22;30950;53.086;21.576;2023-04-24T01:52:44;11.10;99.90
45207;DHT22;30950;53.086;21.576;2023-04-24T01:55:12;11.10;99.90
45207;DHT22;30950;53.086;21.576;2023-04-24T01:57:39;11.00;99.90
45207;DHT22;30950;53.086;21.576;2023-04-24T02:00:07;11.10;99.90
45207;DHT22;30950;53.086;21.576;2023-04-24T02:02:41;10.90;99.90
45207;DHT22;30950;53.086;21.576;2023-04-24T02:05:13;10.90;99.90
45207;DHT22;30950;53.086;21.576;2023-04-24T02:07:40;10.80;99.90
45207;DHT22;30950;53.086;21.576;2023-04-24T02:10:09;10.80;99.90
45207;DHT22;30950;53.086;21.576;2023-04-24T02:12:41;10.70;99.90
45207;DHT22;30950;53.086;21.576;2023-04-24T02:15:08;10.60;99.90
45207;DHT22;30950;53.086;21.576;2023-04-24T02:17:37;10.60;99.90
45207;DHT22;30950;53.086;21.576;2023-04-24T02:20:06;11.10;99.90
45207;DHT22;30950;53.086;21.576;2023-04-24T02:22:33;10.50;99.90
45207;DHT22;30950;53.086;21.576;2023-04-24T02:25:01;10.40;99.90
45207;DHT22;30950;53.086;21.576;2023-04-24T02:27:29;10.40;99.90
45207;DHT22;30950;53.086;21.576;2023-04-24T02:29:57;10.30;99.90
45207;DHT22;30950;53.086;21.576;2023-04-24T02:32:24;10.30;99.90
45207;DHT22;30950;53.086;21.576;2023-04-24T02:34:51;10.20;99.90
45207;DHT22;30950;53.086;21.576;2023-04-24T02:37:19;10.20;99.90
45207;DHT22;30950;53.086;21.576;2023-04-24T02:39:46;10.30;99.90
45207;DHT22;30950;53.086;21.576;2023-04-24T02:42:13;10.10;99.90
45207;DHT22;30950;53.086;21.576;2023-04-24T02:44:41;10.00;99.90
45207;DHT22;30950;53.086;21.576;2023-04-24T02:47:08;10.10;99.90
45207;DHT22;30950;53.086;21.576;2023-04-24T02:49:36;10.00;99.90
45207;DHT22;30950;53.086;21.576;2023-04-24T02:52:03;9.80;99.90
45207;DHT22;30950;53.086;21.576;2023-04-24T02:54:30;9.90;99.90
45207;DHT22;30950;53.086;21.576;2023-04-24T02:56:57;9.90;99.90
45207;DHT22;30950;53.086;21.576;2023-04-24T02:59:25;9.80;99.90
45207;DHT22;30950;53.086;21.576;2023-04-24T03:01:54;9.80;99.90
45207;DHT22;30950;53.086;21.576;2023-04-24T03:04:22;10.00;99.90
45207;DHT22;30950;53.086;21.576;2023-04-24T03:06:50;9.80;99.90
45207;DHT22;30950;53.086;21.576;2023-04-24T03:09:23;9.80;99.90
45207;DHT22;30950;53.086;21.576;2023-04-24T03:11:50;9.80;99.90
45207;DHT22;30950;53.086;21.576;2023-04-24T03:14:18;9.80;99.90
45207;DHT22;30950;53.086;21.576;2023-04-24T03:16:45;9.80;99.90
45207;DHT22;30950;53.086;21.576;2023-04-24T03:19:12;9.80;99.90
45207;DHT22;30950;53.086;21.576;2023-04-24T03:21:54;9.80;99.90
45207;DHT22;30950;53.086;21.576;2023-04-24T03:24:22;10.00;99.90
45207;DHT22;30950;53.086;21.576;2023-04-24T03:26:50;9.90;99.90
45207;DHT22;30950;53.086;21.576;2023-04-24T03:29:33;9.80;99.90
45207;DHT22;30950;53.086;21.576;2023-04-24T03:32:01;9.90;99.90
45207;DHT22;30950;53.086;21.576;2023-04-24T03:34:28;9.90;99.90
45207;DHT22;30950;53.086;21.576;2023-04-24T03:36:56;9.90;99.90
45207;DHT22;30950;53.086;21.576;2023-04-24T03:39:25;9.90;99.90
45207;DHT22;30950;53.086;21.576;2023-04-24T03:41:55;10.00;99.90
45207;DHT22;30950;53.086;21.576;2023-04-24T03:44:32;9.90;99.90
45207;DHT22;30950;53.086;21.576;2023-04-24T03:46:59;10.00;99.90
45207;DHT22;30950;53.086;21.576;2023-04-24T03:49:27;10.10;99.90
45207;DHT22;30950;53.086;21.576;2023-04-24T03:51:54;10.10;99.90
45207;DHT22;30950;53.086;21.576;2023-04-24T03:54:25;10.10;99.90
45207;DHT22;30950;53.086;21.576;2023-04-24T03:56:53;10.20;99.90
45207;DHT22;30950;53.086;21.576;2023-04-24T03:59:20;10.20;99.90
45207;DHT22;30950;53.086;21.576;2023-04-24T04:01:59;10.20;99.90
45207;DHT22;30950;53.086;21.576;2023-04-24T04:04:27;10.20;99.90
45207;DHT22;30950;53.086;21.576;2023-04-24T04:06:54;10.30;99.90
45207;DHT22;30950;53.086;21.576;2023-04-24T04:09:23;10.30;99.90
45207;DHT22;30950;53.086;21.576;2023-04-24T04:11:51;10.30;99.90
45207;DHT22;30950;53.086;21.576;2023-04-24T04:14:18;10.30;99.90
45207;DHT22;30950;53.086;21.576;2023-04-24T04:16:47;10.40;99.90
45207;DHT22;30950;53.086;21.576;2023-04-24T04:19:15;10.40;99.90
45207;DHT22;30950;53.086;21.576;2023-04-24T04:21:42;10.50;99.90
45207;DHT22;30950;53.086;21.576;2023-04-24T04:24:22;10.40;99.90
45207;DHT22;30950;53.086;21.576;2023-04-24T04:26:51;10.50;99.90
45207;DHT22;30950;53.086;21.576;2023-04-24T04:29:24;10.50;99.90
45207;DHT22;30950;53.086;21.576;2023-04-24T04:31:53;10.50;99.90
45207;DHT22;30950;53.086;21.576;2023-04-24T04:34:21;10.50;99.90
45207;DHT22;30950;53.086;21.576;2023-04-24T04:36:50;10.50;99.90
45207;DHT22;30950;53.086;21.576;2023-04-24T04:39:41;10.70;99.90
45207;DHT22;30950;53.086;21.576;2023-04-24T04:42:21;10.70;99.90
45207;DHT22;30950;53.086;21.576;2023-04-24T04:44:50;10.70;99.90
45207;DHT22;30950;53.086;21.576;2023-04-24T04:47:22;10.70;99.90
45207;DHT22;30950;53.086;21.576;2023-04-24T04:49:52;10.80;99.90
45207;DHT22;30950;53.086;21.576;2023-04-24T04:52:23;10.80;99.90
45207;DHT22;30950;53.086;21.576;2023-04-24T04:55:13;10.90;99.90
45207;DHT22;30950;53.086;21.576;2023-04-24T04:58:04;11.00;99.90
45207;DHT22;30950;53.086;21.576;2023-04-24T05:00:31;11.10;99.90
45207;DHT22;30950;53.086;21.576;2023-04-24T05:03:08;11.20;99.90
45207;DHT22;30950;53.086;21.576;2023-04-24T05:05:51;11.20;99.90
45207;DHT22;30950;53.086;21.576;2023-04-24T05:08:18;11.30;99.90
45207;DHT22;30950;53.086;21.576;2023-04-24T05:10:55;11.40;99.90
45207;DHT22;30950;53.086;21.576;2023-04-24T05:13:23;11.50;99.90
45207;DHT22;30950;53.086;21.576;2023-04-24T05:16:14;11.60;99.90
45207;DHT22;30950;53.086;21.576;2023-04-24T05:18:42;11.70;99.90
45207;DHT22;30950;53.086;21.576;2023-04-24T05:21:13;11.80;99.90
45207;DHT22;30950;53.086;21.576;2023-04-24T05:23:42;11.90;99.90
45207;DHT22;30950;53.086;21.576;2023-04-24T05:26:14;12.00;99.90
45207;DHT22;30950;53.086;21.576;2023-04-24T05:28:42;12.00;99.90
45207;DHT22;30950;53.086;21.576;2023-04-24T05:31:12;12.20;99.90
45207;DHT22;30950;53.086;21.576;2023-04-24T05:33:39;12.30;99.90
45207;DHT22;30950;53.086;21.576;2023-04-24T05:36:07;12.40;99.90
45207;DHT22;30950;53.086;21.576;2023-04-24T05:38:35;12.50;99.90
45207;DHT22;30950;53.086;21.576;2023-04-24T05:41:03;12.60;99.90
45207;DHT22;30950;53.086;21.576;2023-04-24T05:43:30;12.70;99.90
45207;DHT22;30950;53.086;21.576;2023-04-24T05:45:57;12.80;99.90
45207;DHT22;30950;53.086;21.576;2023-04-24T05:48:24;12.90;99.90
45207;DHT22;30950;53.086;21.576;2023-04-24T05:50:52;13.00;99.90
45207;DHT22;30950;53.086;21.576;2023-04-24T05:53:19;13.00;99.90
45207;DHT22;30950;53.086;21.576;2023-04-24T05:55:47;13.20;99.90
45207;DHT22;30950;53.086;21.576;2023-04-24T05:58:15;13.20;99.90
45207;DHT22;30950;53.086;21.576;2023-04-24T06:00:42;13.30;99.90
45207;DHT22;30950;53.086;21.576;2023-04-24T06:03:11;13.40;99.90
45207;DHT22;30950;53.086;21.576;2023-04-24T06:05:40;13.50;99.90
45207;DHT22;30950;53.086;21.576;2023-04-24T06:08:08;13.60;99.90
45207;DHT22;30950;53.086;21.576;2023-04-24T06:10:38;13.70;99.90
45207;DHT22;30950;53.086;21.576;2023-04-24T06:13:07;13.80;99.90
45207;DHT22;30950;53.086;21.576;2023-04-24T06:15:38;13.90;99.90
45207;DHT22;30950;53.086;21.576;2023-04-24T06:18:18;14.00;99.90
45207;DHT22;30950;53.086;21.576;2023-04-24T06:20:48;14.10;99.90
45207;DHT22;30950;53.086;21.576;2023-04-24T06:23:15;14.20;99.60
45207;DHT22;30950;53.086;21.576;2023-04-24T06:25:43;14.30;99.60
45207;DHT22;30950;53.086;21.576;2023-04-24T06:28:12;14.40;99.90
45207;DHT22;30950;53.086;21.576;2023-04-24T06:30:40;14.60;99.20
45207;DHT22;30950;53.086;21.576;2023-04-24T06:33:08;14.80;98.80
45207;DHT22;30950;53.086;21.576;2023-04-24T06:35:48;14.90;98.50
45207;DHT22;30950;53.086;21.576;2023-04-24T06:38:15;15.10;97.80
45207;DHT22;30950;53.086;21.576;2023-04-24T06:40:43;15.20;96.90
45207;DHT22;30950;53.086;21.576;2023-04-24T06:43:10;15.40;96.40
45207;DHT22;30950;53.086;21.576;2023-04-24T06:45:38;15.40;95.30
45207;DHT22;30950;53.086;21.576;2023-04-24T06:48:06;15.50;94.50
45207;DHT22;30950;53.086;21.576;2023-04-24T06:50:34;15.60;94.40
45207;DHT22;30950;53.086;21.576;2023-04-24T06:53:02;15.70;94.00
45207;DHT22;30950;53.086;21.576;2023-04-24T06:55:29;15.80;93.80
45207;DHT22;30950;53.086;21.576;2023-04-24T06:57:56;15.90;93.50
45207;DHT22;30950;53.086;21.576;2023-04-24T07:00:24;16.00;93.20
45207;DHT22;30950;53.086;21.576;2023-04-24T07:02:51;16.10;93.10
45207;DHT22;30950;53.086;21.576;2023-04-24T07:05:19;16.20;92.80
45207;DHT22;30950;53.086;21.576;2023-04-24T07:07:50;16.30;92.60
45207;DHT22;30950;53.086;21.576;2023-04-24T07:10:18;16.40;92.10
45207;DHT22;30950;53.086;21.576;2023-04-24T07:12:45;16.50;92.50
45207;DHT22;30950;53.086;21.576;2023-04-24T07:15:14;16.60;92.40
45207;DHT22;30950;53.086;21.576;2023-04-24T07:17:41;16.70;91.60
45207;DHT22;30950;53.086;21.576;2023-04-24T07:20:11;16.70;91.60
45207;DHT22;30950;53.086;21.576;2023-04-24T07:22:41;16.80;91.90
45207;DHT22;30950;53.086;21.576;2023-04-24T07:25:09;16.90;91.40
45207;DHT22;30950;53.086;21.576;2023-04-24T07:27:36;17.10;90.70
45207;DHT22;30950;53.086;21.576;2023-04-24T07:30:04;17.20;90.90
45207;DHT22;30950;53.086;21.576;2023-04-24T07:32:31;17.30;91.20
45207;DHT22;30950;53.086;21.576;2023-04-24T07:34:59;17.40;90.40
45207;DHT22;30950;53.086;21.576;2023-04-24T07:37:28;17.60;89.80
45207;DHT22;30950;53.086;21.576;2023-04-24T07:39:55;17.70;88.10
45207;DHT22;30950;53.086;21.576;2023-04-24T07:42:22;17.80;87.20
45207;DHT22;30950;53.086;21.576;2023-04-24T07:44:50;17.90;86.60
45207;DHT22;30950;53.086;21.576;2023-04-24T07:47:20;18.10;86.70
45207;DHT22;30950;53.086;21.576;2023-04-24T07:49:48;18.30;84.10
45207;DHT22;30950;53.086;21.576;2023-04-24T07:52:15;18.40;82.20
45207;DHT22;30950;53.086;21.576;2023-04-24T07:54:42;18.50;81.50
45207;DHT22;30950;53.086;21.576;2023-04-24T07:57:10;18.60;81.20
45207;DHT22;30950;53.086;21.576;2023-04-24T07:59:37;18.70;78.30
45207;DHT22;30950;53.086;21.576;2023-04-24T08:02:04;18.80;76.60
45207;DHT22;30950;53.086;21.576;2023-04-24T08:04:33;18.80;76.30
45207;DHT22;30950;53.086;21.576;2023-04-24T08:07:00;18.80;74.80
45207;DHT22;30950;53.086;21.576;2023-04-24T08:09:28;18.80;74.60
45207;DHT22;30950;53.086;21.576;2023-04-24T08:11:56;18.80;73.90
45207;DHT22;30950;53.086;21.576;2023-04-24T08:14:23;18.90;72.60
45207;DHT22;30950;53.086;21.576;2023-04-24T08:16:54;18.80;71.30
45207;DHT22;30950;53.086;21.576;2023-04-24T08:19:22;18.80;71.40
45207;DHT22;30950;53.086;21.576;2023-04-24T08:21:52;18.80;70.90
45207;DHT22;30950;53.086;21.576;2023-04-24T08:24:19;18.80;71.60
45207;DHT22;30950;53.086;21.576;2023-04-24T08:26:46;18.80;72.60
45207;DHT22;30950;53.086;21.576;2023-04-24T08:29:17;18.90;71.10
45207;DHT22;30950;53.086;21.576;2023-04-24T08:31:44;19.00;69.90
45207;DHT22;30950;53.086;21.576;2023-04-24T08:34:12;19.10;69.00
45207;DHT22;30950;53.086;21.576;2023-04-24T08:36:39;19.20;68.80
45207;DHT22;30950;53.086;21.576;2023-04-24T08:39:14;19.40;68.90
45207;DHT22;30950;53.086;21.576;2023-04-24T08:41:43;19.50;67.40
45207;DHT22;30950;53.086;21.576;2023-04-24T08:44:11;19.70;66.80
45207;DHT22;30950;53.086;21.576;2023-04-24T08:46:39;19.80;66.00
45207;DHT22;30950;53.086;21.576;2023-04-24T08:49:07;19.80;64.80
45207;DHT22;30950;53.086;21.576;2023-04-24T08:51:36;19.90;65.00
45207;DHT22;30950;53.086;21.576;2023-04-24T08:54:04;20.00;65.20
45207;DHT22;30950;53.086;21.576;2023-04-24T08:56:33;20.00;64.50
45207;DHT22;30950;53.086;21.576;2023-04-24T08:59:01;20.10;63.50
45207;DHT22;30950;53.086;21.576;2023-04-24T09:01:29;20.30;63.40
45207;DHT22;30950;53.086;21.576;2023-04-24T09:04:02;20.30;63.10
45207;DHT22;30950;53.086;21.576;2023-04-24T09:06:31;20.40;62.20
45207;DHT22;30950;53.086;21.576;2023-04-24T09:09:02;20.50;62.80
45207;DHT22;30950;53.086;21.576;2023-04-24T09:11:31;20.50;62.80
45207;DHT22;30950;53.086;21.576;2023-04-24T09:14:00;20.70;63.10
45207;DHT22;30950;53.086;21.576;2023-04-24T09:16:28;20.90;63.00
45207;DHT22;30950;53.086;21.576;2023-04-24T09:18:56;21.00;63.10
45207;DHT22;30950;53.086;21.576;2023-04-24T09:21:23;21.00;61.60
45207;DHT22;30950;53.086;21.576;2023-04-24T09:24:05;21.10;60.90
45207;DHT22;30950;53.086;21.576;2023-04-24T09:26:35;21.10;60.80
45207;DHT22;30950;53.086;21.576;2023-04-24T09:29:03;21.10;60.70
45207;DHT22;30950;53.086;21.576;2023-04-24T09:31:31;21.10;60.10
45207;DHT22;30950;53.086;21.576;2023-04-24T09:34:00;21.10;60.00
45207;DHT22;30950;53.086;21.576;2023-04-24T09:36:38;21.10;60.00
45207;DHT22;30950;53.086;21.576;2023-04-24T09:39:07;21.00;59.90
45207;DHT22;30950;53.086;21.576;2023-04-24T09:41:35;21.00;59.70
45207;DHT22;30950;53.086;21.576;2023-04-24T09:46:48;20.90;59.80
45207;DHT22;30950;53.086;21.576;2023-04-24T09:49:24;21.00;60.30
45207;DHT22;30950;53.086;21.576;2023-04-24T09:51:53;21.00;59.30
45207;DHT22;30950;53.086;21.576;2023-04-24T09:54:29;21.10;59.40
45207;DHT22;30950;53.086;21.576;2023-04-24T09:56:57;21.00;59.10
45207;DHT22;30950;53.086;21.576;2023-04-24T09:59:24;21.10;59.10
45207;DHT22;30950;53.086;21.576;2023-04-24T10:01:51;21.00;58.90
45207;DHT22;30950;53.086;21.576;2023-04-24T10:06:48;21.20;59.80
45207;DHT22;30950;53.086;21.576;2023-04-24T10:09:17;21.30;60.10
45207;DHT22;30950;53.086;21.576;2023-04-24T10:11:46;21.50;60.50
45207;DHT22;30950;53.086;21.576;2023-04-24T10:14:19;21.60;58.80
45207;DHT22;30950;53.086;21.576;2023-04-24T10:16:48;21.70;55.60
45207;DHT22;30950;53.086;21.576;2023-04-24T10:19:17;21.90;55.00
45207;DHT22;30950;53.086;21.576;2023-04-24T10:21:47;22.00;55.40
45207;DHT22;30950;53.086;21.576;2023-04-24T10:24:17;22.20;53.60
45207;DHT22;30950;53.086;21.576;2023-04-24T10:26:45;22.60;51.90
45207;DHT22;30950;53.086;21.576;2023-04-24T10:29:17;23.20;52.60
45207;DHT22;30950;53.086;21.576;2023-04-24T10:31:45;23.80;51.30
45207;DHT22;30950;53.086;21.576;2023-04-24T10:34:15;24.30;51.20
45207;DHT22;30950;53.086;21.576;2023-04-24T10:36:53;24.90;50.30
45207;DHT22;30950;53.086;21.576;2023-04-24T10:39:24;25.30;48.60
45207;DHT22;30950;53.086;21.576;2023-04-24T10:41:55;25.60;48.70
45207;DHT22;30950;53.086;21.576;2023-04-24T10:44:25;26.10;49.30
45207;DHT22;30950;53.086;21.576;2023-04-24T10:47:03;26.30;47.70
45207;DHT22;30950;53.086;21.576;2023-04-24T10:49:31;26.30;46.60
45207;DHT22;30950;53.086;21.576;2023-04-24T10:52:03;26.20;46.50
45207;DHT22;30950;53.086;21.576;2023-04-24T10:54:46;25.90;46.30
45207;DHT22;30950;53.086;21.576;2023-04-24T10:59:46;25.30;46.40
45207;DHT22;30950;53.086;21.576;2023-04-24T11:02:17;25.10;45.90
45207;DHT22;30950;53.086;21.576;2023-04-24T11:04:45;24.80;45.80
45207;DHT22;30950;53.086;21.576;2023-04-24T11:07:13;24.50;46.00
45207;DHT22;30950;53.086;21.576;2023-04-24T11:09:42;24.40;45.80
45207;DHT22;30950;53.086;21.576;2023-04-24T11:12:11;24.20;46.50
45207;DHT22;30950;53.086;21.576;2023-04-24T11:15:10;24.10;47.30
45207;DHT22;30950;53.086;21.576;2023-04-24T11:17:38;24.20;47.90
45207;DHT22;30950;53.086;21.576;2023-04-24T11:20:15;24.10;47.10
45207;DHT22;30950;53.086;21.576;2023-04-24T11:22:54;24.10;46.50
45207;DHT22;30950;53.086;21.576;2023-04-24T11:25:22;24.00;45.90
45207;DHT22;30950;53.086;21.576;2023-04-24T11:27:50;24.00;46.20
45207;DHT22;30950;53.086;21.576;2023-04-24T11:30:29;23.80;45.60
45207;DHT22;30950;53.086;21.576;2023-04-24T11:33:07;23.80;45.50
45207;DHT22;30950;53.086;21.576;2023-04-24T11:35:35;23.80;46.30
45207;DHT22;30950;53.086;21.576;2023-04-24T11:38:04;23.80;45.60
45207;DHT22;30950;53.086;21.576;2023-04-24T11:40:35;23.90;45.50
45207;DHT22;30950;53.086;21.576;2023-04-24T11:43:04;24.00;45.20
45207;DHT22;30950;53.086;21.576;2023-04-24T11:45:33;23.90;45.10
45207;DHT22;30950;53.086;21.576;2023-04-24T11:48:02;24.00;45.40
45207;DHT22;30950;53.086;21.576;2023-04-24T11:50:30;24.10;44.50
45207;DHT22;30950;53.086;21.576;2023-04-24T11:52:57;24.20;44.00
45207;DHT22;30950;53.086;21.576;2023-04-24T11:55:27;24.30;44.60
45207;DHT22;30950;53.086;21.576;2023-04-24T11:57:57;24.40;42.80
45207;DHT22;30950;53.086;21.576;2023-04-24T12:00:26;24.50;43.40
45207;DHT22;30950;53.086;21.576;2023-04-24T12:03:08;24.60;43.00
45207;DHT22;30950;53.086;21.576;2023-04-24T12:05:36;24.70;42.80
45207;DHT22;30950;53.086;21.576;2023-04-24T12:08:04;24.70;42.70
45207;DHT22;30950;53.086;21.576;2023-04-24T12:10:33;24.80;41.50
45207;DHT22;30950;53.086;21.576;2023-04-24T12:13:02;24.90;42.10
45207;DHT22;30950;53.086;21.576;2023-04-24T12:15:29;25.00;41.80
45207;DHT22;30950;53.086;21.576;2023-04-24T12:17:57;25.00;41.90
45207;DHT22;30950;53.086;21.576;2023-04-24T12:20:29;25.00;42.30
45207;DHT22;30950;53.086;21.576;2023-04-24T12:22:59;25.20;43.00
45207;DHT22;30950;53.086;21.576;2023-04-24T12:25:32;25.30;41.90
45207;DHT22;30950;53.086;21.576;2023-04-24T12:30:35;25.10;41.80
45207;DHT22;30950;53.086;21.576;2023-04-24T12:33:03;25.00;42.40
45207;DHT22;30950;53.086;21.576;2023-04-24T12:35:32;25.10;42.90
45207;DHT22;30950;53.086;21.576;2023-04-24T12:38:09;25.20;42.30
45207;DHT22;30950;53.086;21.576;2023-04-24T12:40:36;25.40;43.10
45207;DHT22;30950;53.086;21.576;2023-04-24T12:43:18;25.50;42.40
45207;DHT22;30950;53.086;21.576;2023-04-24T12:45:47;25.70;41.60
45207;DHT22;30950;53.086;21.576;2023-04-24T12:48:14;25.80;41.80
45207;DHT22;30950;53.086;21.576;2023-04-24T12:50:43;25.90;41.80
45207;DHT22;30950;53.086;21.576;2023-04-24T12:53:13;25.80;41.20
45207;DHT22;30950;53.086;21.576;2023-04-24T12:55:40;26.00;41.80
45207;DHT22;30950;53.086;21.576;2023-04-24T12:58:08;26.40;41.10
45207;DHT22;30950;53.086;21.576;2023-04-24T13:00:35;26.90;41.20
45207;DHT22;30950;53.086;21.576;2023-04-24T13:03:03;27.30;41.50
45207;DHT22;30950;53.086;21.576;2023-04-24T13:05:31;27.40;40.90
45207;DHT22;30950;53.086;21.576;2023-04-24T13:07:58;27.20;39.80
45207;DHT22;30950;53.086;21.576;2023-04-24T13:10:25;26.80;39.90
45207;DHT22;30950;53.086;21.576;2023-04-24T13:12:53;26.50;40.50
45207;DHT22;30950;53.086;21.576;2023-04-24T13:15:21;26.40;41.00
45207;DHT22;30950;53.086;21.576;2023-04-24T13:17:49;26.60;42.20
45207;DHT22;30950;53.086;21.576;2023-04-24T13:20:16;26.90;40.90
45207;DHT22;30950;53.086;21.576;2023-04-24T13:22:45;27.00;40.10
45207;DHT22;30950;53.086;21.576;2023-04-24T13:25:12;26.90;40.00
45207;DHT22;30950;53.086;21.576;2023-04-24T13:27:39;26.50;39.80
45207;DHT22;30950;53.086;21.576;2023-04-24T13:30:07;26.10;40.10
45207;DHT22;30950;53.086;21.576;2023-04-24T13:32:35;25.80;40.50
45207;DHT22;30950;53.086;21.576;2023-04-24T13:35:02;25.70;41.60
45207;DHT22;30950;53.086;21.576;2023-04-24T13:37:30;25.50;42.10
45207;DHT22;30950;53.086;21.576;2023-04-24T13:39:57;25.80;42.90
45207;DHT22;30950;53.086;21.576;2023-04-24T13:42:25;26.00;43.30
45207;DHT22;30950;53.086;21.576;2023-04-24T13:44:53;26.20;43.00
45207;DHT22;30950;53.086;21.576;2023-04-24T13:47:21;25.90;42.50
45207;DHT22;30950;53.086;21.576;2023-04-24T13:49:48;25.80;42.80
45207;DHT22;30950;53.086;21.576;2023-04-24T13:52:15;25.80;43.40
45207;DHT22;30950;53.086;21.576;2023-04-24T13:54:43;25.70;43.50
45207;DHT22;30950;53.086;21.576;2023-04-24T13:57:10;25.40;43.80
45207;DHT22;30950;53.086;21.576;2023-04-24T13:59:38;25.10;44.00
45207;DHT22;30950;53.086;21.576;2023-04-24T14:02:07;24.80;44.30
45207;DHT22;30950;53.086;21.576;2023-04-24T14:04:35;24.40;44.90
45207;DHT22;30950;53.086;21.576;2023-04-24T14:07:03;24.20;45.60
45207;DHT22;30950;53.086;21.576;2023-04-24T14:09:30;23.90;46.30
45207;DHT22;30950;53.086;21.576;2023-04-24T14:11:57;23.70;45.90
45207;DHT22;30950;53.086;21.576;2023-04-24T14:14:24;23.40;45.80
45207;DHT22;30950;53.086;21.576;2023-04-24T14:16:52;23.20;46.20
45207;DHT22;30950;53.086;21.576;2023-04-24T14:19:19;23.10;46.40
45207;DHT22;30950;53.086;21.576;2023-04-24T14:21:47;22.90;46.30
45207;DHT22;30950;53.086;21.576;2023-04-24T14:24:15;22.70;46.80
45207;DHT22;30950;53.086;21.576;2023-04-24T14:26:42;22.60;47.10
45207;DHT22;30950;53.086;21.576;2023-04-24T14:29:09;22.60;47.10
45207;DHT22;30950;53.086;21.576;2023-04-24T14:31:42;22.50;46.00
45207;DHT22;30950;53.086;21.576;2023-04-24T14:34:09;22.10;45.30
45207;DHT22;30950;53.086;21.576;2023-04-24T14:36:37;21.80;45.30
45207;DHT22;30950;53.086;21.576;2023-04-24T14:39:04;21.50;47.30
45207;DHT22;30950;53.086;21.576;2023-04-24T14:41:34;21.50;48.30
45207;DHT22;30950;53.086;21.576;2023-04-24T14:44:03;21.40;49.90
45207;DHT22;30950;53.086;21.576;2023-04-24T14:46:31;21.20;50.90
45207;DHT22;30950;53.086;21.576;2023-04-24T14:48:58;20.90;52.00
45207;DHT22;30950;53.086;21.576;2023-04-24T14:51:26;20.60;53.30
45207;DHT22;30950;53.086;21.576;2023-04-24T14:53:53;20.40;53.70
45207;DHT22;30950;53.086;21.576;2023-04-24T14:56:21;20.10;54.90
45207;DHT22;30950;53.086;21.576;2023-04-24T14:58:48;19.90;56.50
45207;DHT22;30950;53.086;21.576;2023-04-24T15:01:16;19.70;57.40
45207;DHT22;30950;53.086;21.576;2023-04-24T15:03:44;19.60;59.90
45207;DHT22;30950;53.086;21.576;2023-04-24T15:06:12;19.50;58.30
45207;DHT22;30950;53.086;21.576;2023-04-24T15:08:39;19.40;59.90
45207;DHT22;30950;53.086;21.576;2023-04-24T15:11:10;19.40;64.10
45207;DHT22;30950;53.086;21.576;2023-04-24T15:13:37;19.50;67.10
45207;DHT22;30950;53.086;21.576;2023-04-24T15:16:05;19.70;64.80
45207;DHT22;30950;53.086;21.576;2023-04-24T15:18:32;19.90;64.80
45207;DHT22;30950;53.086;21.576;2023-04-24T15:21:00;19.90;66.20
45207;DHT22;30950;53.086;21.576;2023-04-24T15:23:27;20.00;65.10
45207;DHT22;30950;53.086;21.576;2023-04-24T15:25:54;20.00;66.70
45207;DHT22;30950;53.086;21.576;2023-04-24T15:28:21;20.20;66.00
45207;DHT22;30950;53.086;21.576;2023-04-24T15:30:49;20.60;66.10
45207;DHT22;30950;53.086;21.576;2023-04-24T15:33:16;21.00;65.90
45207;DHT22;30950;53.086;21.576;2023-04-24T15:35:44;21.30;63.00
45207;DHT22;30950;53.086;21.576;2023-04-24T15:38:11;21.60;61.70
45207;DHT22;30950;53.086;21.576;2023-04-24T15:40:38;21.80;59.30